sensor_id;sensor_type;location;lat;lon;timestamp;temperature;humidity
19342;DHT22;9807;48.258;12.690;2023-02-16T17:28:36;8.70;99.90
19342;DHT22;9807;48.258;12.690;2023-02-16T17:31:03;8.70;99.90
19342;DHT22;9807;48.258;12.690;2023-02-16T17:33:29;8.60;99.90
19342;DHT22;9807;48.258;12.690;2023-02-16T17:35:55;8.60;99.90
19342;DHT22;9807;48.258;12.690;2023-02-16T17:38:21;8.60;99.90
19342;DHT22;9807;48.258;12.690;2023-02-16T17:40:49;8.50;99.90
19342;DHT22;9807;48.258;12.690;2023-02-16T17:43:18;8.50;99.90
19342;DHT22;9807;48.258;12.690;2023-02-16T17:45:45;8.50;99.90
19342;DHT22;9807;48.258;12.690;2023-02-16T17:48:23;8.50;99.90
19342;DHT22;9807;48.258;12.690;2023-02-16T17:50:49;8.50;99.90
19342;DHT22;9807;48.258;12.690;2023-02-16T17:53:18;8.40;99.90
19342;DHT22;9807;48.258;12.690;2023-02-16T17:55:45;8.40;99.90
19342;DHT22;9807;48.258;12.690;2023-02-16T17:58:12;8.40;99.90
19342;DHT22;9807;48.258;12.690;2023-02-16T18:00:37;8.50;99.90
19342;DHT22;9807;48.258;12.690;2023-02-16T18:03:06;8.40;99.90
19342;DHT22;9807;48.258;12.690;2023-02-16T18:05:32;8.40;99.90
19342;DHT22;9807;48.258;12.690;2023-02-16T18:07:58;8.40;99.90
19342;DHT22;9807;48.258;12.690;2023-02-16T18:10:51;8.40;99.90
19342;DHT22;9807;48.258;12.690;2023-02-16T18:13:17;8.30;99.90
19342;DHT22;9807;48.258;12.690;2023-02-16T18:15:47;8.30;99.90
19342;DHT22;9807;48.258;12.690;2023-02-16T18:18:15;8.20;99.90
19342;DHT22;9807;48.258;12.690;2023-02-16T18:20:41;8.30;99.90
19342;DHT22;9807;48.258;12.690;2023-02-16T18:23:07;8.30;99.90
19342;DHT22;9807;48.258;12.690;2023-02-16T18:25:33;8.20;99.90
19342;DHT22;9807;48.258;12.690;2023-02-16T18:27:59;8.20;99.90
19342;DHT22;9807;48.258;12.690;2023-02-16T18:30:25;8.20;99.90
19342;DHT22;9807;48.258;12.690;2023-02-16T18:32:51;8.10;99.90
19342;DHT22;9807;48.258;12.690;2023-02-16T18:35:17;8.10;99.90
19342;DHT22;9807;48.258;12.690;2023-02-16T18:37:44;8.10;99.90
19342;DHT22;9807;48.258;12.690;2023-02-16T18:40:14;8.20;99.90
19342;DHT22;9807;48.258;12.690;2023-02-16T18:42:41;8.10;99.90
19342;DHT22;9807;48.258;12.690;2023-02-16T18:45:07;8.00;99.90
19342;DHT22;9807;48.258;12.690;2023-02-16T18:47:33;8.10;99.90
19342;DHT22;9807;48.258;12.690;2023-02-16T18:49:59;8.10;99.90
19342;DHT22;9807;48.258;12.690;2023-02-16T18:52:24;8.10;99.90
19342;DHT22;9807;48.258;12.690;2023-02-16T18:54:50;8.10;99.90
19342;DHT22;9807;48.258;12.690;2023-02-16T18:57:19;8.10;99.90
19342;DHT22;9807;48.258;12.690;2023-02-16T18:59:47;8.10;99.90
19342;DHT22;9807;48.258;12.690;2023-02-16T19:02:13;8.10;99.90
19342;DHT22;9807;48.258;12.690;2023-02-16T19:04:39;8.00;99.90
19342;DHT22;9807;48.258;12.690;2023-02-16T19:07:05;8.00;99.90
19342;DHT22;9807;48.258;12.690;2023-02-16T19:09:30;7.90;99.90
19342;DHT22;9807;48.258;12.690;2023-02-16T19:11:59;7.90;99.90
19342;DHT22;9807;48.258;12.690;2023-02-16T19:14:25;7.90;99.90
19342;DHT22;9807;48.258;12.690;2023-02-16T19:16:51;7.90;99.90
19342;DHT22;9807;48.258;12.690;2023-02-16T19:19:17;7.80;99.90
19342;DHT22;9807;48.258;12.690;2023-02-16T19:21:42;7.80;99.90
19342;DHT22;9807;48.258;12.690;2023-02-16T19:24:11;7.90;99.90
19342;DHT22;9807;48.258;12.690;2023-02-16T19:26:38;7.90;99.90
19342;DHT22;9807;48.258;12.690;2023-02-16T19:29:04;7.90;99.90
19342;DHT22;9807;48.258;12.690;2023-02-16T19:31:31;7.90;99.90
19342;DHT22;9807;48.258;12.690;2023-02-16T19:33:58;7.90;99.90
19342;DHT22;9807;48.258;12.690;2023-02-16T19:36:28;7.90;99.90
19342;DHT22;9807;48.258;12.690;2023-02-16T19:38:59;7.90;99.90
19342;DHT22;9807;48.258;12.690;2023-02-16T19:41:34;7.90;99.90
19342;DHT22;9807;48.258;12.690;2023-02-16T19:44:00;7.90;99.90
19342;DHT22;9807;48.258;12.690;2023-02-16T19:46:27;7.70;99.90
19342;DHT22;9807;48.258;12.690;2023-02-16T19:48:54;7.60;99.90
19342;DHT22;9807;48.258;12.690;2023-02-16T19:51:19;7.70;99.90
19342;DHT22;9807;48.258;12.690;2023-02-16T19:53:45;7.70;99.90
19342;DHT22;9807;48.258;12.690;2023-02-16T19:56:14;7.70;99.90
19342;DHT22;9807;48.258;12.690;2023-02-16T19:58:40;7.70;99.90
19342;DHT22;9807;48.258;12.690;2023-02-16T20:01:17;7.70;99.90
19342;DHT22;9807;48.258;12.690;2023-02-16T20:03:44;7.80;99.90
19342;DHT22;9807;48.258;12.690;2023-02-16T20:06:17;7.80;99.90
19342;DHT22;9807;48.258;12.690;2023-02-16T20:08:44;7.80;99.90
19342;DHT22;9807;48.258;12.690;2023-02-16T20:11:10;7.80;99.90
19342;DHT22;9807;48.258;12.690;2023-02-16T20:13:36;7.80;99.90
19342;DHT22;9807;48.258;12.690;2023-02-16T20:16:06;7.90;99.90
19342;DHT22;9807;48.258;12.690;2023-02-16T20:18:33;7.80;99.90
19342;DHT22;9807;48.258;12.690;2023-02-16T20:20:59;7.80;99.90
19342;DHT22;9807;48.258;12.690;2023-02-16T20:23:26;7.60;99.90
19342;DHT22;9807;48.258;12.690;2023-02-16T20:25:53;7.40;99.90
19342;DHT22;9807;48.258;12.690;2023-02-16T20:28:19;7.40;99.90
19342;DHT22;9807;48.258;12.690;2023-02-16T20:30:45;7.40;99.90
19342;DHT22;9807;48.258;12.690;2023-02-16T20:33:11;7.50;99.90
19342;DHT22;9807;48.258;12.690;2023-02-16T20:35:37;7.60;99.90
19342;DHT22;9807;48.258;12.690;2023-02-16T20:38:05;7.50;99.90
19342;DHT22;9807;48.258;12.690;2023-02-16T20:40:31;7.60;99.90
19342;DHT22;9807;48.258;12.690;2023-02-16T20:42:57;7.70;99.90
19342;DHT22;9807;48.258;12.690;2023-02-16T20:45:22;7.60;99.90
19342;DHT22;9807;48.258;12.690;2023-02-16T20:47:48;7.70;99.90
19342;DHT22;9807;48.258;12.690;2023-02-16T20:50:14;7.50;99.90
19342;DHT22;9807;48.258;12.690;2023-02-16T20:52:40;7.20;99.90
19342;DHT22;9807;48.258;12.690;2023-02-16T20:55:07;7.30;99.90
19342;DHT22;9807;48.258;12.690;2023-02-16T20:57:34;7.40;99.90
19342;DHT22;9807;48.258;12.690;2023-02-16T21:00:06;7.50;99.90
19342;DHT22;9807;48.258;12.690;2023-02-16T21:02:38;7.60;99.90
19342;DHT22;9807;48.258;12.690;2023-02-16T21:05:08;7.60;99.90
19342;DHT22;9807;48.258;12.690;2023-02-16T21:07:34;7.60;99.90
19342;DHT22;9807;48.258;12.690;2023-02-16T21:10:00;7.60;99.90
19342;DHT22;9807;48.258;12.690;2023-02-16T21:12:26;7.70;99.90
19342;DHT22;9807;48.258;12.690;2023-02-16T21:14:52;7.70;99.90
19342;DHT22;9807;48.258;12.690;2023-02-16T21:17:17;7.80;99.90
19342;DHT22;9807;48.258;12.690;2023-02-16T21:19:53;7.80;99.90
19342;DHT22;9807;48.258;12.690;2023-02-16T21:22:18;7.70;99.90
19342;DHT22;9807;48.258;12.690;2023-02-16T21:24:44;7.70;99.90
19342;DHT22;9807;48.258;12.690;2023-02-16T21:27:10;7.80;99.90
19342;DHT22;9807;48.258;12.690;2023-02-16T21:29:36;7.80;99.90
19342;DHT22;9807;48.258;12.690;2023-02-16T21:32:02;7.80;99.90
19342;DHT22;9807;48.258;12.690;2023-02-16T21:34:28;7.80;99.90
19342;DHT22;9807;48.258;12.690;2023-02-16T21:36:54;7.80;99.90
19342;DHT22;9807;48.258;12.690;2023-02-16T21:39:27;7.80;99.90
19342;DHT22;9807;48.258;12.690;2023-02-16T21:42:11;7.80;99.90
19342;DHT22;9807;48.258;12.690;2023-02-16T21:44:37;7.80;99.90
19342;DHT22;9807;48.258;12.690;2023-02-16T21:47:11;7.80;99.90
19342;DHT22;9807;48.258;12.690;2023-02-16T21:49:56;7.80;99.90
19342;DHT22;9807;48.258;12.690;2023-02-16T21:52:22;7.80;99.90
19342;DHT22;9807;48.258;12.690;2023-02-16T21:54:49;7.70;99.90
19342;DHT22;9807;48.258;12.690;2023-02-16T21:57:35;7.80;99.90
19342;DHT22;9807;48.258;12.690;2023-02-16T22:00:01;7.90;99.90
19342;DHT22;9807;48.258;12.690;2023-02-16T22:02:30;7.90;99.90
19342;DHT22;9807;48.258;12.690;2023-02-16T22:04:56;7.80;99.90
19342;DHT22;9807;48.258;12.690;2023-02-16T22:07:22;7.80;99.90
19342;DHT22;9807;48.258;12.690;2023-02-16T22:09:48;7.90;99.90
19342;DHT22;9807;48.258;12.690;2023-02-16T22:12:13;7.90;99.90
19342;DHT22;9807;48.258;12.690;2023-02-16T22:14:41;7.80;99.90
19342;DHT22;9807;48.258;12.690;2023-02-16T22:17:08;7.90;99.90
19342;DHT22;9807;48.258;12.690;2023-02-16T22:19:33;7.80;99.90
19342;DHT22;9807;48.258;12.690;2023-02-16T22:21:59;7.90;99.90
19342;DHT22;9807;48.258;12.690;2023-02-16T22:24:25;7.80;99.90
19342;DHT22;9807;48.258;12.690;2023-02-16T22:26:50;7.80;99.90
19342;DHT22;9807;48.258;12.690;2023-02-16T22:29:17;7.90;99.90
19342;DHT22;9807;48.258;12.690;2023-02-16T22:31:45;7.80;99.90
19342;DHT22;9807;48.258;12.690;2023-02-16T22:34:14;7.90;99.90
19342;DHT22;9807;48.258;12.690;2023-02-16T22:36:42;7.90;99.90
19342;DHT22;9807;48.258;12.690;2023-02-16T22:39:11;7.80;99.90
19342;DHT22;9807;48.258;12.690;2023-02-16T22:41:40;7.80;99.90
19342;DHT22;9807;48.258;12.690;2023-02-16T22:44:06;7.80;99.90
19342;DHT22;9807;48.258;12.690;2023-02-16T22:46:32;7.80;99.90
19342;DHT22;9807;48.258;12.690;2023-02-16T22:48:58;7.90;99.90
19342;DHT22;9807;48.258;12.690;2023-02-16T22:51:28;7.80;99.90
19342;DHT22;9807;48.258;12.690;2023-02-16T22:53:58;7.80;99.90
19342;DHT22;9807;48.258;12.690;2023-02-16T22:56:24;7.80;99.90
19342;DHT22;9807;48.258;12.690;2023-02-16T22:58:51;7.80;99.90
19342;DHT22;9807;48.258;12.690;2023-02-16T23:01:19;7.90;99.90
19342;DHT22;9807;48.258;12.690;2023-02-16T23:03:46;7.80;99.90
19342;DHT22;9807;48.258;12.690;2023-02-16T23:06:19;7.80;99.90
19342;DHT22;9807;48.258;12.690;2023-02-16T23:08:51;7.80;99.90
19342;DHT22;9807;48.258;12.690;2023-02-16T23:11:17;7.80;99.90
19342;DHT22;9807;48.258;12.690;2023-02-16T23:13:43;7.80;99.90
19342;DHT22;9807;48.258;12.690;2023-02-16T23:16:14;7.80;99.90
19342;DHT22;9807;48.258;12.690;2023-02-16T23:18:41;7.90;99.90
19342;DHT22;9807;48.258;12.690;2023-02-16T23:23:40;7.90;99.90
19342;DHT22;9807;48.258;12.690;2023-02-16T23:26:06;7.90;99.90
19342;DHT22;9807;48.258;12.690;2023-02-16T23:28:37;7.80;99.90
19342;DHT22;9807;48.258;12.690;2023-02-16T23:31:03;7.80;99.90
19342;DHT22;9807;48.258;12.690;2023-02-16T23:33:29;7.80;99.90
19342;DHT22;9807;48.258;12.690;2023-02-16T23:35:55;7.80;99.90
19342;DHT22;9807;48.258;12.690;2023-02-16T23:38:26;7.80;99.90
19342;DHT22;9807;48.258;12.690;2023-02-16T23:40:57;7.90;99.90
19342;DHT22;9807;48.258;12.690;2023-02-16T23:43:27;7.90;99.90
19342;DHT22;9807;48.258;12.690;2023-02-16T23:45:53;7.90;99.90
19342;DHT22;9807;48.258;12.690;2023-02-16T23:48:20;7.80;99.90
19342;DHT22;9807;48.258;12.690;2023-02-16T23:50:45;7.80;99.90
19342;DHT22;9807;48.258;12.690;2023-02-16T23:53:11;7.80;99.90
19342;DHT22;9807;48.258;12.690;2023-02-16T23:55:37;7.80;99.90
19342;DHT22;9807;48.258;12.690;2023-02-16T23:58:03;7.80;99.90
